createdAt,value
2022-12-06T00:01:20.143Z,101074.13
2022-12-06T00:03:52.793Z,101098.97
2022-12-06T00:06:22.187Z,101100.09
2022-12-06T00:08:51.481Z,101073.19
2022-12-06T00:11:21.427Z,101088.78
2022-12-06T00:13:53.467Z,101083.53
2022-12-06T00:16:24.530Z,101096.16
2022-12-06T00:18:53.516Z,101083.19
2022-12-06T00:21:24.031Z,101089.59
2022-12-06T00:23:54.002Z,101082.53
2022-12-06T00:26:22.859Z,101061.31
2022-12-06T00:28:55.081Z,101071.16
2022-12-06T00:31:26.905Z,101086.31
2022-12-06T00:33:55.567Z,101095.50
2022-12-06T00:36:26.488Z,101098.78
2022-12-06T00:38:54.503Z,101093.88
2022-12-06T00:41:24.403Z,101095.19
2022-12-06T00:43:53.001Z,101096.00
2022-12-06T00:46:23.413Z,101096.47
2022-12-06T00:48:53.798Z,101096.47
2022-12-06T00:51:24.539Z,101091.22
2022-12-06T00:53:53.116Z,101076.78
2022-12-06T00:56:21.117Z,101085.00
2022-12-06T00:58:49.843Z,101086.63
2022-12-06T01:01:20.524Z,101096.47
2022-12-06T01:03:51.505Z,101080.22
2022-12-06T01:06:26.435Z,101092.72
2022-12-06T01:08:55.169Z,101086.31
2022-12-06T01:11:24.309Z,101076.09
2022-12-06T01:13:52.746Z,101091.56
2022-12-06T01:16:22.896Z,101093.34
2022-12-06T01:18:54.581Z,101088.25
2022-12-06T01:21:25.321Z,101088.91
2022-12-06T01:23:54.902Z,101078.91
2022-12-06T01:26:25.046Z,101078.59
2022-12-06T01:28:53.728Z,101077.91
2022-12-06T01:31:21.902Z,101074.47
2022-12-06T01:33:50.273Z,101056.34
2022-12-06T01:36:19.535Z,101080.72
2022-12-06T01:38:52.791Z,101053.25
2022-12-06T01:41:22.132Z,101078.91
2022-12-06T01:43:50.836Z,101072.81
2022-12-06T01:46:30.103Z,101083.53
2022-12-06T01:49:09.463Z,101087.78
2022-12-06T01:51:38.348Z,101067.25
2022-12-06T01:54:11.764Z,101076.63
2022-12-06T01:56:41.828Z,101069.19
2022-12-06T01:59:11.179Z,101083.66
2022-12-06T02:01:40.947Z,101093.53
2022-12-06T02:04:10.359Z,101087.13
2022-12-06T02:06:40.221Z,101077.44
2022-12-06T02:09:11.910Z,101069.69
2022-12-06T02:11:39.763Z,101085.31
2022-12-06T02:14:12.733Z,101068.88
2022-12-06T02:16:52.972Z,101054.09
2022-12-06T02:19:44.782Z,101058.22
2022-12-06T02:22:19.172Z,101072.31
2022-12-06T02:25:12.369Z,101050.94
2022-12-06T02:28:00.617Z,101056.53
2022-12-06T02:30:40.922Z,101077.09
2022-12-06T02:33:12.145Z,101071.81
2022-12-06T02:35:45.146Z,101056.03
2022-12-06T02:38:17.672Z,101054.56
2022-12-06T02:40:51.490Z,101056.22
2022-12-06T02:43:24.749Z,101077.22
2022-12-06T02:45:58.591Z,101072.97
2022-12-06T02:48:27.705Z,101076.41
2022-12-06T02:51:01.595Z,101082.81
2022-12-06T02:53:32.178Z,101077.06
2022-12-06T02:56:01.062Z,101059.97
2022-12-06T02:58:28.958Z,101089.22
2022-12-06T03:01:01.477Z,101072.47
2022-12-06T03:03:51.493Z,101076.22
2022-12-06T03:06:49.504Z,101087.22
2022-12-06T03:09:33.742Z,101061.63
2022-12-06T03:12:09.262Z,101049.63
2022-12-06T03:14:46.707Z,101079.53
2022-12-06T03:17:22.275Z,101035.97
2022-12-06T03:19:57.204Z,101084.28
2022-12-06T03:22:35.596Z,101090.22
2022-12-06T03:25:07.878Z,101090.72
2022-12-06T03:27:37.358Z,101088.91
2022-12-06T03:30:08.853Z,101079.69
2022-12-06T03:32:42.675Z,101091.19
2022-12-06T03:35:14.702Z,101071.31
2022-12-06T03:37:48.678Z,101075.91
2022-12-06T03:40:20.906Z,101071.97
2022-12-06T03:42:51.132Z,101088.25
2022-12-06T03:45:20.166Z,101063.59
2022-12-06T03:47:55.518Z,101087.25
2022-12-06T03:50:25.883Z,101087.09
2022-12-06T03:52:54.267Z,101063.56
2022-12-06T03:55:22.808Z,101039.78
2022-12-06T03:57:50.642Z,101057.03
2022-12-06T04:00:19.605Z,101068.69
2022-12-06T04:02:47.521Z,101085.94
2022-12-06T04:05:16.893Z,101074.13
2022-12-06T04:07:45.310Z,101085.31
2022-12-06T04:10:13.367Z,101072.97
2022-12-06T04:12:59.140Z,101063.63
2022-12-06T04:15:26.760Z,101089.41
2022-12-06T04:18:18.053Z,101081.31
2022-12-06T04:21:07.127Z,101074.78
2022-12-06T04:23:38.110Z,101058.50
2022-12-06T04:26:07.867Z,101060.31
2022-12-06T04:28:53.986Z,101058.66
2022-12-06T04:31:39.789Z,101088.06
2022-12-06T04:34:25.823Z,101089.72
2022-12-06T04:37:12.555Z,101079.03
2022-12-06T04:39:40.766Z,101063.59
2022-12-06T04:42:26.403Z,101070.66
2022-12-06T04:44:54.778Z,101071.47
2022-12-06T04:47:22.878Z,101075.72
2022-12-06T04:49:51.442Z,101069.16
2022-12-06T04:52:20.830Z,101083.94
2022-12-06T04:54:48.698Z,101054.53
2022-12-06T04:57:18.656Z,101063.56
2022-12-06T04:59:49.351Z,101077.03
2022-12-06T05:02:17.914Z,101044.81
2022-12-06T05:04:45.680Z,101050.09
2022-12-06T05:07:14.018Z,101051.72
2022-12-06T05:09:43.187Z,101047.28
2022-12-06T05:12:11.464Z,101058.28
2022-12-06T05:14:39.373Z,101054.66
2022-12-06T05:17:07.212Z,101029.03
2022-12-06T05:19:35.448Z,101045.81
2022-12-06T05:22:03.329Z,101070.44
2022-12-06T05:24:31.945Z,101045.63
2022-12-06T05:27:01.123Z,101064.81
2022-12-06T05:29:29.634Z,101062.56
2022-12-06T05:31:57.585Z,101039.88
2022-12-06T05:34:26.298Z,101069.63
2022-12-06T05:36:54.190Z,101048.09
2022-12-06T05:39:22.498Z,101025.09
2022-12-06T05:41:50.748Z,101055.97
2022-12-06T05:44:20.171Z,101026.41
2022-12-06T05:46:48.000Z,101052.34
2022-12-06T05:49:16.364Z,101045.78
2022-12-06T05:51:44.396Z,101029.66
2022-12-06T05:54:12.692Z,101043.31
2022-12-06T05:56:41.002Z,101054.47
2022-12-06T05:59:09.237Z,101058.59
2022-12-06T06:01:38.475Z,101046.09
2022-12-06T06:04:06.895Z,101049.06
2022-12-06T06:06:34.843Z,101024.75
2022-12-06T06:09:03.204Z,101025.41
2022-12-06T06:11:30.963Z,101061.38
2022-12-06T06:13:59.236Z,101047.09
2022-12-06T06:16:27.301Z,101047.78
2022-12-06T06:18:57.081Z,101043.66
2022-12-06T06:21:26.079Z,101040.03
2022-12-06T06:23:54.411Z,101048.09
2022-12-06T06:26:22.227Z,101054.66
2022-12-06T06:28:50.406Z,101065.19
2022-12-06T06:31:18.337Z,101067.31
2022-12-06T06:33:46.280Z,101062.38
2022-12-06T06:36:15.570Z,101073.41
2022-12-06T06:38:43.341Z,101060.94
2022-12-06T06:41:13.041Z,101073.91
2022-12-06T06:43:40.863Z,101058.13
2022-12-06T06:46:09.658Z,101041.50
2022-12-06T06:48:40.055Z,101067.84
2022-12-06T06:51:09.984Z,101065.53
2022-12-06T06:53:40.623Z,101071.41
2022-12-06T06:56:08.992Z,101029.41
2022-12-06T06:58:37.270Z,101033.03
2022-12-06T07:01:07.457Z,101072.47
2022-12-06T07:03:36.344Z,101043.19
2022-12-06T07:06:09.784Z,101055.00
2022-12-06T07:08:39.697Z,101071.78
2022-12-06T07:11:07.541Z,101071.78
2022-12-06T07:13:37.210Z,101039.56
2022-12-06T07:16:06.566Z,101041.38
2022-12-06T07:18:34.901Z,101069.78
2022-12-06T07:21:04.919Z,101051.41
2022-12-06T07:23:33.567Z,101065.00
2022-12-06T07:26:04.727Z,101063.19
2022-12-06T07:28:33.701Z,101063.69
2022-12-06T07:31:09.484Z,101060.88
2022-12-06T07:33:37.911Z,101067.16
2022-12-06T07:36:14.190Z,101073.41
2022-12-06T07:38:43.586Z,101077.03
2022-12-06T07:41:33.111Z,101047.78
2022-12-06T07:44:19.761Z,101073.75
2022-12-06T07:46:49.178Z,101082.13
2022-12-06T07:49:18.088Z,101084.63
2022-12-06T07:51:46.833Z,101085.44
2022-12-06T07:54:15.633Z,101067.38
2022-12-06T07:56:45.330Z,101084.44
2022-12-06T07:59:13.601Z,101087.09
2022-12-06T08:01:41.944Z,101076.41
2022-12-06T08:04:09.906Z,101080.84
2022-12-06T08:06:38.210Z,101080.50
2022-12-06T08:09:06.792Z,101094.16
2022-12-06T08:11:35.522Z,101079.03
2022-12-06T08:14:05.340Z,101098.75
2022-12-06T08:16:33.151Z,101062.25
2022-12-06T08:19:02.792Z,101079.00
2022-12-06T08:21:30.787Z,101091.53
2022-12-06T08:23:58.621Z,101065.88
2022-12-06T08:26:26.609Z,101095.78
2022-12-06T08:28:54.574Z,101079.69
2022-12-06T08:31:25.143Z,101100.25
2022-12-06T08:33:53.294Z,101102.69
2022-12-06T08:36:23.011Z,101102.69
2022-12-06T08:38:51.984Z,101107.66
2022-12-06T08:41:38.114Z,101109.47
2022-12-06T08:44:06.284Z,101089.56
2022-12-06T08:46:36.217Z,101120.50
2022-12-06T08:49:04.347Z,101122.44
2022-12-06T08:51:34.613Z,101126.06
2022-12-06T08:54:03.116Z,101136.59
2022-12-06T08:56:31.744Z,101134.97
2022-12-06T08:58:59.857Z,101126.44
2022-12-06T09:01:35.763Z,101136.97
2022-12-06T09:04:08.599Z,101126.13
2022-12-06T09:06:39.913Z,101123.47
2022-12-06T09:09:08.533Z,101119.84
2022-12-06T09:11:36.463Z,101140.44
2022-12-06T09:14:05.268Z,101151.13
2022-12-06T09:16:33.076Z,101156.06
2022-12-06T09:19:01.316Z,101160.97
2022-12-06T09:21:33.064Z,101160.66
2022-12-06T09:24:01.743Z,101166.91
2022-12-06T09:26:29.803Z,101160.16
2022-12-06T09:28:58.264Z,101162.31
2022-12-06T09:31:26.977Z,101132.19
2022-12-06T09:33:54.832Z,101163.25
2022-12-06T09:36:25.775Z,101149.13
2022-12-06T09:38:59.312Z,101159.63
2022-12-06T09:42:10.365Z,101163.41
2022-12-06T09:44:56.097Z,101147.91
2022-12-06T09:47:32.072Z,101161.72
2022-12-06T09:50:09.876Z,101153.81
2022-12-06T09:52:58.876Z,101162.53
2022-12-06T09:55:48.851Z,101147.09
2022-12-06T09:58:24.797Z,101155.31
2022-12-06T10:00:59.714Z,101125.72
2022-12-06T10:03:50.840Z,101170.06
2022-12-06T10:06:22.491Z,101165.47
2022-12-06T10:09:04.418Z,101153.28
2022-12-06T10:11:48.752Z,101159.84
2022-12-06T10:14:38.694Z,101153.59
2022-12-06T10:17:19.838Z,101144.22
2022-12-06T10:20:00.787Z,101125.31
2022-12-06T10:22:39.000Z,101137.44
2022-12-06T10:25:14.253Z,101113.09
2022-12-06T10:27:50.858Z,101113.56
2022-12-06T10:30:19.081Z,101126.84
2022-12-06T10:32:55.330Z,101110.94
2022-12-06T10:35:50.424Z,101107.44
2022-12-06T10:38:26.135Z,101116.97
2022-12-06T10:41:05.839Z,101133.16
2022-12-06T10:43:43.460Z,101138.94
2022-12-06T10:46:35.623Z,101139.56
2022-12-06T10:49:08.885Z,101128.69
2022-12-06T10:51:42.866Z,101112.44
2022-12-06T10:54:22.814Z,101118.47
2022-12-06T10:56:54.769Z,101106.28
2022-12-06T10:59:32.909Z,101132.56
2022-12-06T11:02:05.499Z,101124.31
2022-12-06T11:04:36.893Z,101129.06
2022-12-06T11:07:14.977Z,101125.91
2022-12-06T11:09:45.892Z,101110.09
2022-12-06T11:12:30.773Z,101126.66
2022-12-06T11:15:08.928Z,101112.34
2022-12-06T11:17:43.333Z,101115.25
2022-12-06T11:20:18.333Z,101114.09
2022-12-06T11:22:54.563Z,101106.59
2022-12-06T11:25:28.163Z,101119.84
2022-12-06T11:28:01.995Z,101112.75
2022-12-06T11:30:35.803Z,101081.03
2022-12-06T11:33:04.979Z,101082.38
2022-12-06T11:35:33.185Z,101106.28
2022-12-06T11:38:07.067Z,101115.47
2022-12-06T11:40:39.081Z,101099.03
2022-12-06T11:43:13.278Z,101107.19
2022-12-06T11:45:45.361Z,101093.03
2022-12-06T11:48:16.995Z,101108.94
2022-12-06T11:50:46.057Z,101111.78
2022-12-06T11:53:21.127Z,101107.75
2022-12-06T11:55:53.106Z,101110.41
2022-12-06T11:58:28.495Z,101101.31
2022-12-06T12:00:59.278Z,101105.41
2022-12-06T12:03:30.469Z,101098.50
2022-12-06T12:06:19.823Z,101096.50
2022-12-06T12:08:58.486Z,101102.75
2022-12-06T12:11:29.310Z,101076.44
2022-12-06T12:14:02.633Z,101046.69
2022-12-06T12:16:36.614Z,101086.56
2022-12-06T12:19:07.671Z,101092.84
2022-12-06T12:21:41.301Z,101086.91
2022-12-06T12:25:17.502Z,101086.75
2022-12-06T12:27:44.769Z,101082.50
2022-12-06T12:30:28.391Z,101090.84
2022-12-06T12:33:24.965Z,101082.09
2022-12-06T12:36:10.013Z,101075.81
2022-12-06T12:38:42.141Z,101083.59
2022-12-06T12:41:24.892Z,101074.66
2022-12-06T12:44:36.057Z,101081.22
2022-12-06T12:46:56.637Z,101057.25
2022-12-06T12:49:32.420Z,101073.31
2022-12-06T12:52:01.756Z,101061.66
2022-12-06T12:54:32.567Z,101069.47
2022-12-06T12:57:02.803Z,101058.00
2022-12-06T12:59:38.328Z,101064.66
2022-12-06T13:02:17.608Z,101053.63
2022-12-06T13:04:59.893Z,101067.56
2022-12-06T13:07:41.602Z,101056.19
2022-12-06T13:10:18.684Z,101036.94
2022-12-06T13:12:51.221Z,101041.69
2022-12-06T13:15:23.399Z,101050.88
2022-12-06T13:17:59.625Z,101038.28
2022-12-06T13:20:33.296Z,101053.88
2022-12-06T13:23:05.093Z,101047.84
2022-12-06T13:25:33.406Z,101032.94
2022-12-06T13:28:05.729Z,101064.81
2022-12-06T13:30:36.926Z,101049.25
2022-12-06T13:33:08.729Z,101046.88
2022-12-06T13:35:41.210Z,101038.22
2022-12-06T13:38:26.818Z,101025.44
2022-12-06T13:40:56.016Z,101038.84
2022-12-06T13:43:57.311Z,101055.16
2022-12-06T13:46:28.413Z,101026.38
2022-12-06T13:48:57.465Z,101042.56
2022-12-06T13:51:50.760Z,101039.13
2022-12-06T13:54:36.296Z,101037.75
2022-12-06T13:57:22.369Z,101042.03
2022-12-06T13:59:50.420Z,101045.53
2022-12-06T14:02:51.030Z,101038.03
2022-12-06T14:08:20.809Z,101042.78
2022-12-06T14:10:48.749Z,101035.03
2022-12-06T14:13:18.785Z,101032.88
2022-12-06T14:15:49.539Z,101035.78
2022-12-06T14:18:22.955Z,101039.06
2022-12-06T14:20:53.921Z,101038.88
2022-12-06T14:23:29.731Z,101031.59
2022-12-06T14:26:19.867Z,101032.41
2022-12-06T14:28:49.658Z,101028.97
2022-12-06T14:31:31.681Z,101034.25
2022-12-06T14:33:59.540Z,101009.91
2022-12-06T14:36:31.121Z,101011.38
2022-12-06T14:39:03.474Z,101021.56
2022-12-06T14:41:51.969Z,101008.63
2022-12-06T14:44:21.210Z,101021.94
2022-12-06T14:46:50.779Z,101020.09
2022-12-06T14:49:40.025Z,101024.22
2022-12-06T14:52:23.079Z,101020.75
2022-12-06T14:54:54.284Z,101007.63
2022-12-06T14:57:27.845Z,101026.84
2022-12-06T15:00:20.801Z,101019.94
2022-12-06T15:03:24.117Z,101017.09
2022-12-06T15:06:09.209Z,101008.53
2022-12-06T15:08:39.659Z,101009.38
2022-12-06T15:11:52.767Z,100999.72
2022-12-06T15:14:23.398Z,101011.81
2022-12-06T15:17:00.269Z,101011.38
2022-12-06T15:19:29.191Z,101012.19
2022-12-06T15:21:57.198Z,100990.50
2022-12-06T15:24:26.468Z,101008.91
2022-12-06T15:27:05.152Z,101007.09
2022-12-06T15:29:33.310Z,100987.06
2022-12-06T15:32:01.156Z,100991.25
2022-12-06T15:34:30.775Z,100973.56
2022-12-06T15:37:38.335Z,101005.19
2022-12-06T15:39:48.775Z,101010.81
2022-12-06T15:42:20.813Z,101004.38
2022-12-06T15:44:50.227Z,101004.09
2022-12-06T15:47:19.657Z,100997.25
2022-12-06T15:49:48.891Z,101011.34
2022-12-06T15:52:18.325Z,101009.72
2022-12-06T15:54:46.573Z,100994.69
2022-12-06T15:57:14.825Z,101004.50
2022-12-06T15:59:44.031Z,100995.06
2022-12-06T16:02:15.806Z,101007.34
2022-12-06T16:04:44.343Z,101012.28
2022-12-06T16:07:13.515Z,100999.34
2022-12-06T16:09:41.370Z,100998.34
2022-12-06T16:12:09.224Z,101000.03
2022-12-06T16:14:37.493Z,101023.53
2022-12-06T16:17:06.734Z,101016.47
2022-12-06T16:19:48.338Z,101023.00
2022-12-06T16:22:16.315Z,101009.53
2022-12-06T16:24:43.145Z,100995.09
2022-12-06T16:27:11.311Z,101023.66
2022-12-06T16:29:39.130Z,101019.19
2022-12-06T16:32:08.642Z,101021.00
2022-12-06T16:34:36.962Z,101016.09
2022-12-06T16:37:07.977Z,101011.47
2022-12-06T16:39:36.436Z,101016.91
2022-12-06T16:42:05.015Z,101008.16
2022-12-06T16:44:33.848Z,101015.72
2022-12-06T16:47:01.700Z,101008.16
2022-12-06T16:49:49.154Z,101009.78
2022-12-06T16:52:18.533Z,101015.91
2022-12-06T16:54:46.537Z,100993.75
2022-12-06T16:57:15.828Z,100992.75
2022-12-06T16:59:43.719Z,100997.03
2022-12-06T17:02:25.460Z,101014.72
2022-12-06T17:04:55.970Z,100988.47
2022-12-06T17:07:23.815Z,101003.53
2022-12-06T17:09:51.651Z,101009.78
2022-12-06T17:12:19.846Z,100998.41
2022-12-06T17:14:47.733Z,100982.44
2022-12-06T17:17:17.456Z,101011.81
2022-12-06T17:19:46.672Z,101011.81
2022-12-06T17:22:17.322Z,101002.06
2022-12-06T17:24:45.842Z,100989.78
2022-12-06T17:27:15.441Z,100997.13
2022-12-06T17:29:44.328Z,100993.06
2022-12-06T17:32:12.605Z,100996.50
2022-12-06T17:34:40.549Z,100988.78
2022-12-06T17:37:08.423Z,100995.06
2022-12-06T17:39:37.979Z,100976.63
2022-12-06T17:42:24.249Z,100964.03
2022-12-06T17:44:52.961Z,100996.00
2022-12-06T17:47:20.984Z,101001.28
2022-12-06T17:49:49.459Z,100998.03
2022-12-06T17:52:17.895Z,100996.19
2022-12-06T17:54:47.189Z,101007.56
2022-12-06T17:57:18.652Z,101004.31
2022-12-06T17:59:48.895Z,100989.91
2022-12-06T18:02:19.508Z,101003.50
2022-12-06T18:04:49.027Z,101017.66
2022-12-06T18:07:18.307Z,101011.56
2022-12-06T18:09:48.178Z,100990.91
2022-12-06T18:12:17.776Z,101004.38
2022-12-06T18:14:45.855Z,100987.97
2022-12-06T18:17:14.347Z,101013.09
2022-12-06T18:19:44.138Z,101009.03
2022-12-06T18:22:15.455Z,100995.91
2022-12-06T18:24:44.779Z,101012.63
2022-12-06T18:27:15.374Z,100991.81
2022-12-06T18:29:43.750Z,101005.09
2022-12-06T18:32:11.629Z,100999.72
2022-12-06T18:34:39.556Z,101016.94
2022-12-06T18:37:07.942Z,100994.97
2022-12-06T18:39:35.745Z,101017.28
2022-12-06T18:42:03.870Z,101025.03
2022-12-06T18:44:33.123Z,100995.31
2022-12-06T18:47:01.518Z,100989.13
2022-12-06T18:49:29.277Z,101012.19
2022-12-06T18:51:57.162Z,101022.28
2022-12-06T18:54:26.705Z,101021.47
2022-12-06T18:56:54.510Z,101022.63
2022-12-06T18:59:27.474Z,101002.47
2022-12-06T19:01:57.530Z,101019.00
2022-12-06T19:04:25.808Z,101014.72
2022-12-06T19:06:54.307Z,101017.34
2022-12-06T19:09:23.649Z,101011.78
2022-12-06T19:11:51.509Z,100995.22
2022-12-06T19:14:19.517Z,100995.03
2022-12-06T19:16:49.155Z,101013.25
2022-12-06T19:19:20.494Z,101013.91
2022-12-06T19:21:50.271Z,101009.53
2022-12-06T19:24:21.505Z,101005.88
2022-12-06T19:26:50.021Z,101013.78
2022-12-06T19:29:18.043Z,101001.66
2022-12-06T19:31:47.089Z,101001.50
2022-12-06T19:34:19.182Z,101002.31
2022-12-06T19:36:47.616Z,101004.50
2022-12-06T19:39:15.762Z,100987.63
2022-12-06T19:42:01.471Z,100994.38
2022-12-06T19:44:29.904Z,100999.13
2022-12-06T19:46:58.708Z,100999.28
2022-12-06T19:51:57.505Z,100992.25
2022-12-06T19:54:28.394Z,100995.25
2022-12-06T19:56:58.010Z,100987.03
2022-12-06T19:59:28.395Z,100999.22
2022-12-06T20:01:58.170Z,100990.69
2022-12-06T20:04:31.072Z,100985.41
2022-12-06T20:06:59.333Z,100999.75
2022-12-06T20:09:29.784Z,100996.28
2022-12-06T20:12:03.266Z,100991.00
2022-12-06T20:14:36.319Z,100994.31
2022-12-06T20:17:06.278Z,100986.44
2022-12-06T20:19:35.648Z,100983.63
2022-12-06T20:22:03.849Z,100983.19
2022-12-06T20:24:32.492Z,100951.66
2022-12-06T20:27:00.641Z,100974.16
2022-12-06T20:29:30.448Z,100997.94
2022-12-06T20:32:00.172Z,100985.63
2022-12-06T20:34:30.209Z,100999.94
2022-12-06T20:36:59.447Z,101001.22
2022-12-06T20:39:28.553Z,101005.00
2022-12-06T20:41:57.149Z,100970.75
2022-12-06T20:44:25.039Z,100977.78
2022-12-06T20:46:54.623Z,100986.88
2022-12-06T20:49:22.528Z,100984.72
2022-12-06T20:51:53.179Z,100979.59
2022-12-06T20:54:23.863Z,100961.59
2022-12-06T20:56:56.458Z,100984.22
2022-12-06T20:59:24.601Z,100991.44
2022-12-06T21:01:52.558Z,100979.25
2022-12-06T21:04:20.305Z,100988.97
2022-12-06T21:06:48.944Z,100982.72
2022-12-06T21:09:16.812Z,100987.16
2022-12-06T21:11:46.589Z,100984.22
2022-12-06T21:14:16.594Z,100989.13
2022-12-06T21:16:45.177Z,100988.69
2022-12-06T21:19:14.430Z,100981.63
2022-12-06T21:21:46.618Z,100980.81
2022-12-06T21:24:16.765Z,100988.72
2022-12-06T21:26:46.659Z,100979.88
2022-12-06T21:29:17.319Z,100986.59
2022-12-06T21:31:45.747Z,100987.59
2022-12-06T21:34:14.867Z,100978.25
2022-12-06T21:36:43.154Z,100977.78
2022-12-06T21:39:13.063Z,100965.94
2022-12-06T21:41:40.836Z,100988.13
2022-12-06T21:44:11.279Z,100985.31
2022-12-06T21:46:39.343Z,100987.31
2022-12-06T21:49:07.592Z,100986.31
2022-12-06T21:51:35.423Z,100981.22
2022-12-06T21:54:03.664Z,100980.81
2022-12-06T21:56:33.998Z,100986.69
2022-12-06T21:59:02.761Z,100958.81
2022-12-06T22:01:32.950Z,100986.19
2022-12-06T22:04:05.052Z,100992.75
2022-12-06T22:06:33.897Z,100994.72
2022-12-06T22:09:03.614Z,100995.72
2022-12-06T22:11:32.801Z,100994.78
2022-12-06T22:14:01.432Z,100986.41
2022-12-06T22:16:30.648Z,100943.88
2022-12-06T22:18:59.984Z,100990.16
2022-12-06T22:21:33.282Z,100974.06
2022-12-06T22:24:01.549Z,100995.72
2022-12-06T22:26:33.725Z,100978.84
2022-12-06T22:29:02.192Z,100993.44
2022-12-06T22:31:31.677Z,100992.97
2022-12-06T22:34:02.661Z,100976.09
2022-12-06T22:36:31.305Z,100990.84
2022-12-06T22:39:01.633Z,101004.16
2022-12-06T22:41:30.369Z,100979.84
2022-12-06T22:44:00.367Z,100989.03
2022-12-06T22:46:29.600Z,100959.34
2022-12-06T22:48:58.648Z,100970.34
2022-12-06T22:51:30.738Z,100983.66
2022-12-06T22:54:00.578Z,100996.47
2022-12-06T22:56:30.211Z,100981.69
2022-12-06T22:59:00.525Z,100986.81
2022-12-06T23:01:30.915Z,100987.63
2022-12-06T23:04:00.544Z,100991.56
2022-12-06T23:06:30.274Z,100964.13
2022-12-06T23:08:58.674Z,100990.75
2022-12-06T23:11:28.567Z,100991.72
2022-12-06T23:13:57.944Z,100983.81
2022-12-06T23:16:28.268Z,100990.06
2022-12-06T23:18:57.463Z,100991.25
2022-12-06T23:21:27.061Z,100992.88
2022-12-06T23:23:58.868Z,100974.66
2022-12-06T23:26:29.040Z,100986.13
2022-12-06T23:28:56.862Z,100986.50
2022-12-06T23:31:27.604Z,100997.97
2022-12-06T23:33:57.736Z,100972.34
2022-12-06T23:36:29.073Z,100987.44
2022-12-06T23:38:58.425Z,100985.81
2022-12-06T23:41:28.382Z,100971.91
2022-12-06T23:43:58.265Z,100992.22
2022-12-06T23:46:27.741Z,100991.88
2022-12-06T23:48:56.294Z,100975.47
2022-12-06T23:51:26.213Z,100984.81
2022-12-06T23:53:56.958Z,100982.69
2022-12-06T23:56:28.106Z,100977.91
2022-12-06T23:58:56.718Z,100970.84
